Pemaquid Point Lighthouse, ME

43° 50' 13"N, 69° 30' 22"W, Elevation 40 ft.
Eastern Time

Hourly observations for the last 72 hours

Date Time Temperature (°F) Humi-
dity

(%)
Wind
(mph)
Pressure Rain (in) Sun
(W/m2)
UV ET
(in)
Air Dew 6 Hour 1 Hr 3 Hr 6 Hr Day
Alt
(in)
Sea
Level

(mb)
Max Min
28 19:00 51.0 47.6 88 SSW 6 G 8 30.02 1016.7 0.00 216 0.0 0.131
28 18:00 51.3 47.3 86 S 3 G 5 30.01 1016.3 0.00 278 0.8 0.124
28 17:00 53.0 48.3 84 SSW 7 G 10 30.02 1016.6 0.00 494 1.7 0.111
28 16:00 53.4 49.3 86 SSW 8 G 12 30.02 1016.7 0.00 599 2.6 0.096
28 15:00 52.4 48.3 86 S 6 G 9 30.01 1016.4 0.00 751 4.3 0.080
28 14:00 51.8 48.7 53.7 47.2 89 S 9 G 11 30.01 1016.2 0.00 860 5.7 0.063
28 13:00 52.3 47.9 85 S 9 G 12 29.99 1015.7 0.00 958 6.8 0.045
28 12:00 51.7 48.0 87 SE 12 G 14 29.98 1015.3 0.00 998 7.0 0.028
28 11:00 51.5 49.3 92 SE 9 G 11 29.99 1015.6 0.00 947 6.1 0.014
28 10:00 48.5 47.7 97 ENE 7 G 8 29.99 1015.6 0.00 378 2.7 0.008
28 09:00 47.8 47.0 97 E 3 G 4 30.01 1016.3 0.00 199 1.8 0.004
28 08:00 47.4 46.6 47.6 45.5 97 E 6 G 8 29.98 1015.4 0.00 225 1.0 0.001
28 07:00 47.1 46.0 96 E 2 G 7 29.96 1014.6 0.00 86 0.5 0.000
28 06:00 46.7 45.9 97 SSE 0 G 2 29.94 1014.1 0.00 47 0.0 0.000
28 05:00 46.3 45.2 96 Calm 29.95 1014.1 0.00 0 0.0 0.000
28 04:00 46.3 44.9 95 SSW 0 G 2 29.94 1014.0 0.00 0 0.0 0.000
28 03:00 47.2 46.1 96 SSW 3 G 4 29.93 1013.6 0.00 0 0.0 0.000
28 02:00 47.6 46.5 49.2 47.2 96 SW 0 G 2 29.93 1013.7 0.00 0 0.0 0.000
28 01:00 47.8 46.7 96 SW 2 G 4 29.94 1014.1 0.00 0 0.0 0.000
28 00:00 47.6 46.2 95 SW 4 G 7 29.96 1014.5 0.00 0 0.0 0.116
27 23:00 47.3 45.9 95 S 6 G 9 29.95 1014.3 0.00 0 0.0 0.116
27 22:00 47.4 46.0 95 S 8 G 10 29.94 1013.9 0.00 0 0.0 0.116
27 21:00 47.8 46.2 94 S 5 G 6 29.93 1013.5 0.00 0 0.0 0.116
27 20:00 49.2 46.7 55.3 49.2 91 SSE 4 G 5 29.91 1012.7 0.00 9 0.0 0.114
27 19:00 52.0 48.3 87 SW 6 G 10 29.90 1012.4 0.00 176 0.0 0.108
27 18:00 52.8 49.0 87 SW 8 G 12 29.88 1012.0 0.00 397 0.9 0.098
27 17:00 52.9 48.8 86 SW 10 G 13 29.88 1011.9 0.00 598 1.9 0.085
27 16:00 53.0 48.6 85 SSE 7 G 10 29.86 1011.1 0.00 768 2.6 0.069
27 15:00 54.8 50.1 84 ESE 12 G 14 29.85 1010.8 0.00 984 5.3 0.050
27 14:00 54.2 49.5 54.9 52.0 84 E 12 G 13 29.84 1010.7 0.00 1039 6.8 0.034
27 13:00 53.6 48.6 83 E 9 G 10 29.85 1011.0 0.00 329 2.9 0.026
27 12:00 53.3 48.3 83 NE 7 G 10 29.84 1010.7 0.00 596 2.9 0.019
27 11:00 54.0 47.6 79 N 9 G 12 29.83 1010.0 0.00 220 2.0 0.014
27 10:00 53.2 47.9 82 N 5 G 10 29.82 1009.9 0.00 105 1.0 0.010
27 09:00 53.0 48.0 83 N 7 G 15 29.81 1009.5 0.00 127 1.0 0.006
27 08:00 52.1 48.4 52.1 48.7 87 N 4 G 11 29.81 1009.3 0.00 135 0.9 0.003
27 07:00 51.5 47.8 87 N 4 G 10 29.79 1008.8 0.00 120 0.6 0.001
27 06:00 50.5 47.7 90 N 5 G 10 29.76 1007.8 0.00 51 0.0 0.000
27 05:00 49.2 47.3 93 NW 3 G 9 29.74 1007.3 0.00 5 0.0 0.000
27 04:00 48.9 47.0 93 NW 3 G 7 29.73 1006.8 0.00 0 0.0 0.000
27 03:00 49.3 46.8 91 NW 4 G 8 29.73 1006.7 0.00 0 0.0 0.000
27 02:00 49.3 46.8 52.0 49.2 91 NW 5 G 11 29.71 1006.2 0.00 0 0.0 0.000
27 01:00 49.7 47.5 92 NW 5 G 8 29.71 1006.1 0.00 0 0.0 0.000
27 00:00 50.1 47.6 91 NNW 6 G 10 29.70 1005.7 1.31 0 0.0 0.047
26 23:00 50.6 48.1 91 NNW 6 G 10 29.68 1005.0 1.31 0 0.0 0.047
26 22:00 51.0 48.8 92 NNW 5 G 9 29.66 1004.5 1.31 0 0.0 0.047
26 21:00 51.6 49.4 92 NNW 5 G 11 29.65 1004.0 1.31 0 0.0 0.047
26 20:00 52.0 49.7 54.0 49.7 92 NNW 6 G 13 29.63 1003.3 1.31 0 0.0 0.046
26 19:00 53.0 50.4 91 NW 6 G 10 29.59 1002.1 1.31 23 0.0 0.044
26 18:00 53.7 50.5 89 N 7 G 11 29.56 1001.0 1.31 93 0.5 0.042
26 17:00 53.6 51.3 92 N 1 G 6 29.54 1000.4 1.31 98 0.6 0.040
26 16:00 52.9 50.6 92 N 5 G 13 29.52 999.6 1.31 197 1.2 0.036
26 15:00 51.9 49.9 93 NNE 6 G 17 29.50 999.0 1.31 146 1.1 0.033
26 14:00 49.7 48.6 49.7 47.4 96 NNE 12 G 18 29.49 998.8 0.08 1.31 186 1.4 0.029
26 13:00 48.6 47.5 96 NE 16 G 21 29.49 998.7 1.31 190 1.6 0.024
26 12:00 48.5 46.9 94 NE 22 G 30 29.49 998.7 1.31 202 1.6 0.018
26 11:00 47.8 46.7 96 NE 24 G 27 29.50 998.8 0.08 0.08 1.31 199 1.5 0.015
26 10:00 47.9 46.5 95 NE 19 G 31 29.49 998.6 1.23 98 0.7 0.012
26 09:00 47.5 46.4 96 NE 23 G 30 29.50 999.0 1.23 178 0.9 0.009
26 08:00 47.8 46.2 47.8 46.9 94 NE 27 G 33 29.52 999.6 0.03 0.55 1.20 1.23 90 0.5 0.007
26 07:00 47.3 45.9 95 NE 24 G 32 29.53 1000.0 0.17 1.20 18 0.0 0.006
26 06:00 47.1 45.7 95 NE 25 G 33 29.60 1002.3 0.35 1.03 0 0.0 0.005
26 05:00 47.2 46.1 96 NE 28 G 34 29.58 1001.6 0.59 0.65 0.68 0 0.0 0.004
26 04:00 47.7 46.3 95 NE 28 G 43 29.56 1001.2 0.05 0.09 0 0.0 0.003
26 03:00 47.3 46.2 96 NE 30 G 41 29.59 1002.2 0.01 0.04 0 0.0 0.002
26 02:00 47.4 46.3 50.3 47.4 96 NE 29 G 39 29.65 1004.0 0.02 0.04 0.13 0.03 0 0.0 0.001
26 01:00 48.0 46.9 96 NE 26 G 35 29.69 1005.5 0.01 0.01 0 0.0 0.000
26 00:00 48.6 47.5 96 ENE 28 G 38 29.71 1006.1 0.01 0.12 0 0.0 0.057
25 23:00 49.6 48.5 96 NE 25 G 37 29.75 1007.5 0.04 0.09 0.11 0 0.0 0.056
25 22:00 49.5 48.4 96 NE 22 G 31 29.78 1008.6 0.04 0.07 0 0.0 0.055
25 21:00 49.1 47.7 95 NE 23 G 29 29.80 1009.0 0.01 0.03 0 0.0 0.054
25 20:00 50.1 48.4 51.9 49.5 94 ENE 24 G 37 29.80 1009.2 0.02 0.02 0.02 0 0.0 0.053

Data generated by WxSolution Version 1.9.0.6, Build 2017.01.14.